createdAt,value
2023-01-27T00:01:10.137Z,98167.34
2023-01-27T00:03:37.506Z,98163.84
2023-01-27T00:06:06.671Z,98161.41
2023-01-27T00:08:34.384Z,98160.69
2023-01-27T00:11:40.586Z,98158.28
2023-01-27T00:14:07.848Z,98158.88
2023-01-27T00:16:35.371Z,98157.00
2023-01-27T00:19:02.631Z,98155.59
2023-01-27T00:21:48.727Z,98156.63
2023-01-27T00:24:34.666Z,98160.34
2023-01-27T00:27:03.889Z,98158.97
2023-01-27T00:29:31.165Z,98165.59
2023-01-27T00:32:17.405Z,98158.00
2023-01-27T00:34:44.724Z,98167.19
2023-01-27T00:37:12.518Z,98166.63
2023-01-27T00:39:39.845Z,98165.53
2023-01-27T00:42:07.429Z,98173.09
2023-01-27T00:44:34.746Z,98169.38
2023-01-27T00:47:02.339Z,98171.59
2023-01-27T00:49:29.612Z,98166.28
2023-01-27T00:51:57.130Z,98165.25
2023-01-27T00:54:24.436Z,98166.94
2023-01-27T00:56:51.990Z,98168.66
2023-01-27T00:59:19.321Z,98160.41
2023-01-27T01:01:46.880Z,98157.16
2023-01-27T01:04:14.288Z,98149.41
2023-01-27T01:06:41.896Z,98155.59
2023-01-27T01:09:09.161Z,98154.78
2023-01-27T01:11:36.715Z,98157.63
2023-01-27T01:14:03.992Z,98154.06
2023-01-27T01:16:31.654Z,98159.13
2023-01-27T01:18:58.988Z,98157.38
2023-01-27T01:21:26.643Z,98157.44
2023-01-27T01:23:53.938Z,98153.19
2023-01-27T01:26:21.565Z,98148.00
2023-01-27T01:28:48.916Z,98148.25
2023-01-27T01:31:20.041Z,98148.25
2023-01-27T01:33:48.491Z,98148.72
2023-01-27T01:36:20.440Z,98151.78
2023-01-27T01:38:48.737Z,98153.84
2023-01-27T01:41:20.456Z,98151.34
2023-01-27T01:43:51.480Z,98145.97
2023-01-27T01:46:20.416Z,98149.41
2023-01-27T01:48:58.559Z,98145.28
2023-01-27T01:51:35.480Z,98148.06
2023-01-27T01:54:17.199Z,98148.34
2023-01-27T01:56:58.640Z,98149.22
2023-01-27T02:00:18.643Z,98150.69
2023-01-27T02:02:50.285Z,98149.56
2023-01-27T02:05:22.106Z,98154.44
2023-01-27T02:08:15.564Z,98145.22
2023-01-27T02:10:43.066Z,98146.25
2023-01-27T02:13:10.686Z,98142.00
2023-01-27T02:15:39.008Z,98144.72
2023-01-27T02:18:07.765Z,98145.06
2023-01-27T02:20:45.487Z,98143.91
2023-01-27T02:23:39.526Z,98141.59
2023-01-27T02:26:25.755Z,98148.84
2023-01-27T02:29:00.733Z,98139.13
2023-01-27T02:31:28.387Z,98136.63
2023-01-27T02:34:12.252Z,98134.50
2023-01-27T02:36:48.929Z,98138.56
2023-01-27T02:39:22.092Z,98134.13
2023-01-27T02:41:54.971Z,98141.19
2023-01-27T02:44:22.591Z,98139.28
2023-01-27T02:46:49.997Z,98146.44
2023-01-27T02:49:17.623Z,98137.06
2023-01-27T02:51:44.904Z,98139.44
2023-01-27T02:54:12.497Z,98140.53
2023-01-27T02:56:39.880Z,98136.31
2023-01-27T02:59:07.577Z,98139.53
2023-01-27T03:01:34.958Z,98139.59
2023-01-27T03:04:02.534Z,98136.03
2023-01-27T03:06:29.801Z,98141.69
2023-01-27T03:08:57.538Z,98140.44
2023-01-27T03:11:43.371Z,98135.00
2023-01-27T03:14:11.006Z,98142.47
2023-01-27T03:16:57.263Z,98141.75
2023-01-27T03:19:26.787Z,98144.59
2023-01-27T03:21:54.713Z,98148.31
2023-01-27T03:24:22.907Z,98149.22
2023-01-27T03:26:50.219Z,98146.31
2023-01-27T03:29:36.121Z,98149.34
2023-01-27T03:32:03.643Z,98151.31
2023-01-27T03:34:31.201Z,98151.78
2023-01-27T03:37:16.987Z,98153.47
2023-01-27T03:40:02.967Z,98142.75
2023-01-27T03:42:49.091Z,98146.34
2023-01-27T03:45:35.446Z,98146.94
2023-01-27T03:48:02.772Z,98144.66
2023-01-27T03:50:43.209Z,98149.81
2023-01-27T03:53:11.503Z,98141.03
2023-01-27T03:55:39.488Z,98143.53
2023-01-27T03:58:22.932Z,98147.31
2023-01-27T04:01:14.029Z,98146.19
2023-01-27T04:04:00.245Z,98143.78
2023-01-27T04:06:50.237Z,98143.34
2023-01-27T04:09:34.169Z,98142.94
2023-01-27T04:12:05.783Z,98145.03
2023-01-27T04:14:35.784Z,98144.25
2023-01-27T04:17:12.794Z,98142.69
2023-01-27T04:19:40.450Z,98134.19
2023-01-27T04:22:13.166Z,98139.22
2023-01-27T04:24:40.635Z,98133.84
2023-01-27T04:27:14.161Z,98140.06
2023-01-27T04:29:43.012Z,98144.59
2023-01-27T04:32:13.508Z,98138.72
2023-01-27T04:34:42.220Z,98142.13
2023-01-27T04:37:10.713Z,98143.66
2023-01-27T04:39:38.514Z,98143.66
2023-01-27T04:42:06.197Z,98149.41
2023-01-27T04:44:33.450Z,98144.13
2023-01-27T04:47:01.150Z,98144.84
2023-01-27T04:49:28.464Z,98139.72
2023-01-27T04:51:56.393Z,98139.75
2023-01-27T04:54:23.671Z,98140.78
2023-01-27T04:57:05.704Z,98137.44
2023-01-27T04:59:32.971Z,98148.84
2023-01-27T05:02:00.649Z,98142.97
2023-01-27T05:04:27.904Z,98146.34
2023-01-27T05:06:55.859Z,98146.34
2023-01-27T05:09:23.422Z,98148.06
2023-01-27T05:11:50.998Z,98158.31
2023-01-27T05:14:18.441Z,98161.00
2023-01-27T05:16:45.998Z,98158.59
2023-01-27T05:19:13.337Z,98152.09
2023-01-27T05:21:40.875Z,98156.59
2023-01-27T05:24:08.499Z,98155.03
2023-01-27T05:26:36.136Z,98153.72
2023-01-27T05:29:03.550Z,98158.53
2023-01-27T05:31:32.113Z,98158.31
2023-01-27T05:34:01.883Z,98162.53
2023-01-27T05:36:30.310Z,98160.72
2023-01-27T05:38:59.357Z,98155.63
2023-01-27T05:41:33.417Z,98160.09
2023-01-27T05:44:00.730Z,98158.16
2023-01-27T05:46:31.139Z,98162.25
2023-01-27T05:49:02.847Z,98170.75
2023-01-27T05:51:36.652Z,98166.38
2023-01-27T05:54:04.556Z,98164.53
2023-01-27T05:56:33.169Z,98175.59
2023-01-27T05:59:01.087Z,98172.84
2023-01-27T06:01:32.103Z,98170.16
2023-01-27T06:04:00.315Z,98178.72
2023-01-27T06:06:30.967Z,98177.66
2023-01-27T06:09:00.437Z,98176.59
2023-01-27T06:11:28.174Z,98178.06
2023-01-27T06:13:55.796Z,98175.16
2023-01-27T06:16:24.098Z,98184.88
2023-01-27T06:18:51.633Z,98181.28
2023-01-27T06:21:20.692Z,98191.69
2023-01-27T06:23:48.563Z,98186.16
2023-01-27T06:26:19.646Z,98198.13
2023-01-27T06:28:47.432Z,98191.16
2023-01-27T06:31:22.546Z,98199.75
2023-01-27T06:33:51.815Z,98196.28
2023-01-27T06:36:22.282Z,98203.13
2023-01-27T06:38:51.398Z,98212.56
2023-01-27T06:41:19.397Z,98206.19
2023-01-27T06:43:46.883Z,98209.47
2023-01-27T06:46:15.146Z,98211.25
2023-01-27T06:48:42.495Z,98207.81
2023-01-27T06:51:10.377Z,98211.16
2023-01-27T06:53:38.843Z,98221.56
2023-01-27T06:56:07.137Z,98223.22
2023-01-27T06:58:34.713Z,98220.78
2023-01-27T07:01:06.460Z,98219.72
2023-01-27T07:06:00.454Z,98221.06
2023-01-27T07:08:27.758Z,98227.00
2023-01-27T07:10:55.284Z,98226.88
2023-01-27T07:13:22.643Z,98228.66
2023-01-27T07:15:56.363Z,98227.06
2023-01-27T07:18:24.226Z,98230.44
2023-01-27T07:20:52.447Z,98228.06
2023-01-27T07:23:20.192Z,98225.03
2023-01-27T07:25:47.978Z,98229.06
2023-01-27T07:28:15.256Z,98225.09
2023-01-27T07:30:44.141Z,98231.34
2023-01-27T07:33:14.710Z,98229.13
2023-01-27T07:35:43.030Z,98229.00
2023-01-27T07:38:10.519Z,98224.75
2023-01-27T07:40:38.109Z,98224.59
2023-01-27T07:43:05.385Z,98233.34
2023-01-27T07:45:33.068Z,98231.53
2023-01-27T07:48:02.581Z,98239.34
2023-01-27T07:50:30.722Z,98219.66
2023-01-27T07:53:03.338Z,98225.19
2023-01-27T07:55:33.015Z,98236.69
2023-01-27T07:58:00.346Z,98225.56
2023-01-27T08:00:29.134Z,98230.78
2023-01-27T08:02:58.231Z,98236.75
2023-01-27T08:05:26.806Z,98239.81
2023-01-27T08:07:58.664Z,98242.50
2023-01-27T08:10:26.671Z,98239.25
2023-01-27T08:12:54.043Z,98240.88
2023-01-27T08:15:22.795Z,98231.41
2023-01-27T08:17:58.060Z,98233.19
2023-01-27T08:20:28.060Z,98243.84
2023-01-27T08:22:56.142Z,98240.03
2023-01-27T08:25:24.630Z,98239.47
2023-01-27T08:27:56.882Z,98239.00
2023-01-27T08:30:25.193Z,98242.66
2023-01-27T08:32:52.749Z,98250.69
2023-01-27T08:35:20.421Z,98253.41
2023-01-27T08:37:56.079Z,98256.22
2023-01-27T08:40:23.727Z,98255.28
2023-01-27T08:42:51.569Z,98252.56
2023-01-27T08:45:19.557Z,98255.38
2023-01-27T08:47:47.170Z,98253.34
2023-01-27T08:50:15.312Z,98260.31
2023-01-27T08:52:44.263Z,98262.53
2023-01-27T08:55:12.623Z,98257.47
2023-01-27T08:57:40.058Z,98254.06
2023-01-27T09:00:09.670Z,98261.78
2023-01-27T09:02:37.533Z,98266.94
2023-01-27T09:05:05.790Z,98264.22
2023-01-27T09:07:34.283Z,98267.94
2023-01-27T09:10:13.690Z,98266.19
2023-01-27T09:12:43.413Z,98265.06
2023-01-27T09:15:12.839Z,98270.78
2023-01-27T09:17:40.688Z,98274.66
2023-01-27T09:20:09.545Z,98278.25
2023-01-27T09:22:40.438Z,98280.09
2023-01-27T09:25:14.425Z,98278.66
2023-01-27T09:27:41.855Z,98286.38
2023-01-27T09:30:12.692Z,98278.56
2023-01-27T09:32:40.771Z,98282.78
2023-01-27T09:35:09.498Z,98281.44
2023-01-27T09:37:56.876Z,98280.09
2023-01-27T09:41:11.066Z,98282.41
2023-01-27T09:44:22.969Z,98283.75
2023-01-27T09:46:58.846Z,98278.88
2023-01-27T09:49:40.016Z,98276.84
2023-01-27T09:52:22.579Z,98286.31
2023-01-27T09:55:07.374Z,98285.38
2023-01-27T09:57:49.710Z,98285.34
2023-01-27T10:00:38.198Z,98280.63
2023-01-27T10:03:14.214Z,98283.16
2023-01-27T10:05:50.928Z,98276.69
2023-01-27T10:08:53.305Z,98278.91
2023-01-27T10:11:39.876Z,98276.34
2023-01-27T10:14:54.431Z,98274.72
2023-01-27T10:17:34.361Z,98275.63
2023-01-27T10:20:47.072Z,98277.94
2023-01-27T10:23:57.688Z,98277.75
2023-01-27T10:26:51.008Z,98273.75
2023-01-27T10:29:28.639Z,98278.34
2023-01-27T10:32:18.787Z,98272.72
2023-01-27T10:35:14.421Z,98275.97
2023-01-27T10:38:03.733Z,98270.59
2023-01-27T10:41:24.694Z,98277.59
2023-01-27T10:44:49.297Z,98279.59
2023-01-27T10:47:51.201Z,98279.28
2023-01-27T10:50:37.760Z,98279.75
2023-01-27T10:53:28.758Z,98279.09
2023-01-27T10:56:17.877Z,98270.91
2023-01-27T10:58:58.253Z,98275.81
2023-01-27T11:01:35.407Z,98283.59
2023-01-27T11:04:34.751Z,98278.75
2023-01-27T11:07:05.421Z,98279.66
2023-01-27T11:09:43.830Z,98270.81
2023-01-27T11:12:15.291Z,98279.34
2023-01-27T11:14:48.281Z,98272.59
2023-01-27T11:17:39.227Z,98273.44
2023-01-27T11:20:38.444Z,98270.00
2023-01-27T11:23:21.176Z,98272.59
2023-01-27T11:25:55.294Z,98269.31
2023-01-27T11:28:38.994Z,98265.47
2023-01-27T11:31:48.088Z,98275.41
2023-01-27T11:34:56.082Z,98269.31
2023-01-27T11:37:49.782Z,98270.16
2023-01-27T11:40:34.435Z,98275.69
2023-01-27T11:43:04.017Z,98271.56
2023-01-27T11:45:37.376Z,98274.50
2023-01-27T11:48:14.376Z,98273.19
2023-01-27T11:50:44.054Z,98275.53
2023-01-27T11:53:29.696Z,98280.91
2023-01-27T11:56:06.470Z,98280.09
2023-01-27T11:59:09.774Z,98281.88
2023-01-27T12:01:48.691Z,98280.88
2023-01-27T12:04:46.512Z,98276.03
2023-01-27T12:07:35.561Z,98274.53
2023-01-27T12:10:21.212Z,98275.94
2023-01-27T12:12:48.997Z,98263.25
2023-01-27T12:15:18.506Z,98270.47
2023-01-27T12:18:14.001Z,98265.41
2023-01-27T12:20:48.676Z,98261.88
2023-01-27T12:23:29.537Z,98261.25
2023-01-27T12:26:11.251Z,98270.59
2023-01-27T12:29:04.474Z,98265.78
2023-01-27T12:31:44.304Z,98272.75
2023-01-27T12:34:37.472Z,98269.16
2023-01-27T12:37:08.145Z,98276.13
2023-01-27T12:39:46.716Z,98274.91
2023-01-27T12:42:43.627Z,98272.94
2023-01-27T12:45:25.564Z,98263.91
2023-01-27T12:48:19.890Z,98268.91
2023-01-27T12:50:50.497Z,98268.00
2023-01-27T12:53:27.947Z,98260.59
2023-01-27T12:56:08.333Z,98261.09
2023-01-27T12:58:58.794Z,98259.31
2023-01-27T13:01:28.805Z,98260.31
2023-01-27T13:04:04.711Z,98261.97
2023-01-27T13:07:08.476Z,98263.44
2023-01-27T13:10:04.316Z,98265.53
2023-01-27T13:12:49.751Z,98266.19
2023-01-27T13:15:24.005Z,98265.06
2023-01-27T13:18:00.636Z,98265.00
2023-01-27T13:20:51.016Z,98266.75
2023-01-27T13:23:34.964Z,98261.44
2023-01-27T13:26:11.602Z,98267.97
2023-01-27T13:29:09.381Z,98265.88
2023-01-27T13:32:02.146Z,98263.66
2023-01-27T13:34:49.309Z,98259.53
2023-01-27T13:37:46.821Z,98267.47
2023-01-27T13:40:28.627Z,98266.75
2023-01-27T13:43:20.238Z,98270.00
2023-01-27T13:45:57.479Z,98271.16
2023-01-27T13:48:37.371Z,98266.50
2023-01-27T13:51:20.216Z,98263.97
2023-01-27T13:53:57.547Z,98270.81
2023-01-27T13:57:09.449Z,98277.28
2023-01-27T14:00:27.597Z,98280.66
2023-01-27T14:03:18.846Z,98282.84
2023-01-27T14:06:13.403Z,98281.56
2023-01-27T14:08:53.263Z,98282.78
2023-01-27T14:12:03.555Z,98280.84
2023-01-27T14:14:57.440Z,98285.16
2023-01-27T14:17:43.725Z,98294.75
2023-01-27T14:21:01.508Z,98288.91
2023-01-27T14:24:05.644Z,98282.97
2023-01-27T14:26:47.305Z,98297.47
2023-01-27T14:29:51.560Z,98296.00
2023-01-27T14:32:46.856Z,98308.22
2023-01-27T14:35:37.515Z,98309.66
2023-01-27T14:38:26.230Z,98307.06
2023-01-27T14:41:09.391Z,98310.25
2023-01-27T14:44:29.952Z,98308.06
2023-01-27T14:47:47.143Z,98318.47
2023-01-27T14:50:38.459Z,98325.38
2023-01-27T14:53:14.674Z,98316.06
2023-01-27T14:56:02.654Z,98335.75
2023-01-27T14:59:06.265Z,98325.63
2023-01-27T15:02:01.537Z,98329.78
2023-01-27T15:05:16.727Z,98328.91
2023-01-27T15:07:55.884Z,98336.53
2023-01-27T15:10:29.416Z,98340.72
2023-01-27T15:13:32.525Z,98336.75
2023-01-27T15:16:55.043Z,98344.38
2023-01-27T15:19:41.267Z,98344.16
2023-01-27T15:22:38.028Z,98340.22
2023-01-27T15:25:29.909Z,98340.19
2023-01-27T15:27:58.850Z,98356.34
2023-01-27T15:30:31.571Z,98352.56
2023-01-27T15:32:59.052Z,98359.22
2023-01-27T15:35:28.163Z,98362.69
2023-01-27T15:38:15.895Z,98351.00
2023-01-27T15:41:09.190Z,98350.03
2023-01-27T15:44:02.186Z,98352.66
2023-01-27T15:46:35.763Z,98356.72
2023-01-27T15:49:10.994Z,98351.28
2023-01-27T15:51:39.080Z,98356.25
2023-01-27T15:54:19.144Z,98362.09
2023-01-27T15:56:52.251Z,98358.78
2023-01-27T15:59:30.585Z,98363.00
2023-01-27T16:02:25.088Z,98365.88
2023-01-27T16:05:22.014Z,98365.72
2023-01-27T16:08:02.134Z,98360.72
2023-01-27T16:10:35.616Z,98361.34
2023-01-27T16:13:21.611Z,98361.59
2023-01-27T16:15:49.886Z,98354.19
2023-01-27T16:18:17.374Z,98358.16
2023-01-27T16:20:53.295Z,98352.22
2023-01-27T16:23:51.289Z,98361.75
2023-01-27T16:26:43.448Z,98355.94
2023-01-27T16:29:33.860Z,98358.78
2023-01-27T16:32:07.140Z,98360.84
2023-01-27T16:35:05.964Z,98357.28
2023-01-27T16:37:39.105Z,98358.63
2023-01-27T16:40:19.734Z,98357.09
2023-01-27T16:42:53.101Z,98351.13
2023-01-27T16:45:29.114Z,98356.13
2023-01-27T16:48:21.439Z,98362.53
2023-01-27T16:50:50.179Z,98364.22
2023-01-27T16:53:26.166Z,98363.53
2023-01-27T16:56:04.695Z,98361.81
2023-01-27T16:58:45.834Z,98373.47
2023-01-27T17:01:32.019Z,98367.00
2023-01-27T17:04:18.023Z,98374.44
2023-01-27T17:06:49.245Z,98366.84
2023-01-27T17:09:41.904Z,98369.31
2023-01-27T17:12:44.486Z,98375.75
2023-01-27T17:15:38.184Z,98377.09
2023-01-27T17:18:11.498Z,98383.16
2023-01-27T17:20:45.911Z,98384.88
2023-01-27T17:23:35.306Z,98383.97
2023-01-27T17:26:14.821Z,98385.81
2023-01-27T17:28:46.833Z,98388.13
2023-01-27T17:31:22.488Z,98393.53
2023-01-27T17:33:59.539Z,98394.50
2023-01-27T17:36:27.581Z,98394.78
2023-01-27T17:38:57.421Z,98397.75
2023-01-27T17:41:36.699Z,98387.59
2023-01-27T17:44:14.333Z,98398.38
2023-01-27T17:46:42.056Z,98398.31
2023-01-27T17:49:17.688Z,98397.81
2023-01-27T17:51:53.626Z,98408.72
2023-01-27T17:54:30.597Z,98406.19
2023-01-27T17:57:16.216Z,98418.63
2023-01-27T17:59:51.028Z,98412.91
2023-01-27T18:02:31.752Z,98419.56
2023-01-27T18:05:13.974Z,98419.16
2023-01-27T18:07:41.800Z,98408.22
2023-01-27T18:10:34.967Z,98428.81
2023-01-27T18:13:20.698Z,98422.66
2023-01-27T18:16:01.478Z,98421.25
2023-01-27T18:18:35.717Z,98428.81
2023-01-27T18:21:10.699Z,98419.03
2023-01-27T18:23:45.413Z,98429.41
2023-01-27T18:26:39.921Z,98433.34
2023-01-27T18:29:25.769Z,98433.28
2023-01-27T18:32:15.711Z,98438.53
2023-01-27T18:34:57.443Z,98431.63
2023-01-27T18:37:29.378Z,98445.31
2023-01-27T18:39:59.955Z,98438.75
2023-01-27T18:42:31.138Z,98435.91
2023-01-27T18:44:58.542Z,98442.44
2023-01-27T18:47:34.974Z,98438.47
2023-01-27T18:50:11.086Z,98437.53
2023-01-27T18:52:39.264Z,98442.94
2023-01-27T18:55:30.568Z,98435.91
2023-01-27T18:58:00.479Z,98436.75
2023-01-27T19:00:40.436Z,98436.16
2023-01-27T19:03:17.921Z,98434.75
2023-01-27T19:05:46.674Z,98442.84
2023-01-27T19:08:18.727Z,98440.31
2023-01-27T19:10:47.667Z,98443.75
2023-01-27T19:13:16.282Z,98444.84
2023-01-27T19:15:55.082Z,98446.47
2023-01-27T19:18:38.637Z,98448.66
2023-01-27T19:21:06.694Z,98447.81
2023-01-27T19:23:34.364Z,98451.22
2023-01-27T19:26:05.202Z,98458.22
2023-01-27T19:28:37.386Z,98459.59
2023-01-27T19:31:07.503Z,98455.09
2023-01-27T19:33:37.296Z,98467.06
2023-01-27T19:36:42.300Z,98462.16
2023-01-27T19:39:18.025Z,98475.44
2023-01-27T19:41:48.282Z,98470.44
2023-01-27T19:44:16.594Z,98467.75
2023-01-27T19:46:43.941Z,98471.09
2023-01-27T19:49:19.688Z,98471.19
2023-01-27T19:51:47.343Z,98466.06
2023-01-27T19:54:14.973Z,98478.56
2023-01-27T19:56:42.283Z,98485.63
2023-01-27T19:59:12.370Z,98480.09
2023-01-27T20:01:39.662Z,98484.00
2023-01-27T20:04:07.388Z,98480.25
2023-01-27T20:06:34.783Z,98482.47
2023-01-27T20:09:03.663Z,98484.59
2023-01-27T20:11:37.998Z,98485.81
2023-01-27T20:14:25.882Z,98484.03
2023-01-27T20:16:53.351Z,98489.84
2023-01-27T20:19:21.000Z,98496.13
2023-01-27T20:21:49.902Z,98495.94
2023-01-27T20:24:19.876Z,98494.16
2023-01-27T20:26:47.670Z,98495.28
2023-01-27T20:29:15.409Z,98498.47
2023-01-27T20:31:43.339Z,98499.28
2023-01-27T20:34:11.053Z,98501.25
2023-01-27T20:36:38.637Z,98498.69
2023-01-27T20:39:06.416Z,98496.72
2023-01-27T20:41:33.892Z,98509.13
2023-01-27T20:44:01.618Z,98506.38
2023-01-27T20:46:30.490Z,98499.94
2023-01-27T20:49:01.275Z,98508.75
2023-01-27T20:51:28.827Z,98496.03
2023-01-27T20:53:57.901Z,98500.69
2023-01-27T20:56:25.280Z,98495.81
2023-01-27T20:58:54.366Z,98498.78
2023-01-27T21:01:23.628Z,98506.28
2023-01-27T21:03:51.983Z,98492.66
2023-01-27T21:06:20.240Z,98494.06
2023-01-27T21:08:49.299Z,98496.97
2023-01-27T21:11:20.155Z,98485.72
2023-01-27T21:13:49.231Z,98494.19
2023-01-27T21:16:16.707Z,98497.22
2023-01-27T21:18:44.750Z,98485.19
2023-01-27T21:21:27.065Z,98482.47
2023-01-27T21:23:56.432Z,98491.22
2023-01-27T21:26:24.918Z,98487.56
2023-01-27T21:28:52.999Z,98488.31
2023-01-27T21:31:22.614Z,98488.66
2023-01-27T21:33:51.148Z,98495.34
2023-01-27T21:36:19.489Z,98490.78
2023-01-27T21:38:50.396Z,98498.25
2023-01-27T21:41:40.483Z,98495.88
2023-01-27T21:44:39.903Z,98495.34
2023-01-27T21:47:14.081Z,98505.34
2023-01-27T21:50:03.049Z,98501.88
2023-01-27T21:52:49.259Z,98499.50
2023-01-27T21:55:20.830Z,98499.16
2023-01-27T21:57:53.279Z,98502.84
2023-01-27T22:00:26.752Z,98494.25
2023-01-27T22:02:57.119Z,98489.00
2023-01-27T22:05:27.096Z,98486.56
2023-01-27T22:07:54.891Z,98486.69
2023-01-27T22:10:28.810Z,98484.88
2023-01-27T22:13:08.293Z,98488.94
2023-01-27T22:15:36.153Z,98488.34
2023-01-27T22:18:05.845Z,98480.72
2023-01-27T22:20:33.659Z,98485.97
2023-01-27T22:23:00.898Z,98484.94
2023-01-27T22:25:28.501Z,98484.44
2023-01-27T22:27:56.252Z,98483.88
2023-01-27T22:30:24.300Z,98482.19
2023-01-27T22:32:51.634Z,98475.34
2023-01-27T22:35:19.849Z,98475.81
2023-01-27T22:37:49.109Z,98477.41
2023-01-27T22:40:17.234Z,98483.44
2023-01-27T22:42:44.522Z,98484.56
2023-01-27T22:45:13.038Z,98483.66
2023-01-27T22:47:40.651Z,98484.44
2023-01-27T22:50:10.023Z,98481.13
2023-01-27T22:52:39.325Z,98475.34
2023-01-27T22:55:12.403Z,98462.66
2023-01-27T22:57:39.876Z,98466.13
2023-01-27T23:00:09.619Z,98465.47
2023-01-27T23:02:37.289Z,98462.78
2023-01-27T23:05:05.515Z,98471.09
2023-01-27T23:07:32.951Z,98470.63
2023-01-27T23:10:01.035Z,98466.13
2023-01-27T23:12:28.365Z,98461.19
2023-01-27T23:14:55.969Z,98468.06
2023-01-27T23:17:23.231Z,98463.56
2023-01-27T23:19:50.812Z,98463.44
2023-01-27T23:22:18.099Z,98464.69
2023-01-27T23:24:45.615Z,98456.41
2023-01-27T23:27:12.872Z,98456.97
2023-01-27T23:29:40.401Z,98450.25
2023-01-27T23:32:07.955Z,98460.53
2023-01-27T23:34:35.512Z,98454.94
2023-01-27T23:37:02.833Z,98456.56
2023-01-27T23:39:30.374Z,98453.16
2023-01-27T23:41:57.628Z,98448.47
2023-01-27T23:44:25.143Z,98458.63
2023-01-27T23:46:52.408Z,98448.56
2023-01-27T23:49:20.084Z,98449.50
2023-01-27T23:51:47.412Z,98454.69
2023-01-27T23:54:15.035Z,98451.97
2023-01-27T23:56:42.273Z,98449.94
2023-01-27T23:59:13.262Z,98447.72
